Time;durP1;ratioP1;P1;durP2;ratioP2;P2;SDS_P1;SDS_P2;PMS_P1;PMS_P2;Temp;Humidity;BMP_temperature;BMP_pressure;BME280_temperature;BME280_humidity;BME280_pressure;Samples;Min_cycle;Max_cycle;Signal;HPM_P1;HPM_P2
2022/03/03 05:02:34;;;;;;;40.13;19.58;;;0.80;99.90;;;;;;4933052;23;20265;-69
2022/03/03 05:05:01;;;;;;;49.10;21.92;;;0.80;99.90;;;;;;4923784;29;20284;-69
2022/03/03 05:07:28;;;;;;;53.17;19.58;;;0.80;99.90;;;;;;4933089;29;20215;-69
2022/03/03 05:09:54;;;;;;;48.33;19.25;;;0.70;99.90;;;;;;4916277;29;20684;-70
2022/03/03 05:12:21;;;;;;;47.70;22.15;;;0.60;99.90;;;;;;4917093;29;20242;-69
2022/03/03 05:14:48;;;;;;;41.58;18.58;;;0.60;99.90;;;;;;4935343;29;20206;-68
2022/03/03 05:17:14;;;;;;;39.50;19.48;;;0.60;99.90;;;;;;4935711;29;20638;-69
2022/03/03 05:19:42;;;;;;;41.80;17.17;;;0.60;99.90;;;;;;4932508;29;20531;-68
2022/03/03 05:22:09;;;;;;;51.05;20.52;;;0.60;99.90;;;;;;4916229;29;20226;-69
2022/03/03 05:24:36;;;;;;;50.55;20.55;;;0.60;99.90;;;;;;4933511;29;20229;-69
2022/03/03 05:27:03;;;;;;;47.55;19.17;;;0.50;99.90;;;;;;4934242;29;20206;-68
2022/03/03 05:29:30;;;;;;;54.75;19.88;;;0.50;99.90;;;;;;4918923;29;20246;-68
2022/03/03 05:31:57;;;;;;;51.97;19.25;;;0.60;99.90;;;;;;4916206;29;20235;-68
2022/03/03 05:34:24;;;;;;;52.17;24.30;;;0.70;99.90;;;;;;4930642;29;20206;-68
2022/03/03 05:36:53;;;;;;;56.33;21.80;;;0.70;99.90;;;;;;4934428;29;20603;-68
2022/03/03 05:39:20;;;;;;;49.42;19.85;;;0.70;99.90;;;;;;4934201;29;20205;-69
2022/03/03 05:41:47;;;;;;;48.20;21.13;;;0.70;99.90;;;;;;4919954;29;20282;-68
2022/03/03 05:44:14;;;;;;;55.10;22.90;;;0.70;99.90;;;;;;4927595;29;20253;-68
2022/03/03 05:46:43;;;;;;;41.95;19.60;;;0.70;99.90;;;;;;4928728;29;20317;-68
2022/03/03 05:49:10;;;;;;;49.17;20.02;;;0.80;99.90;;;;;;4935008;29;20662;-69
2022/03/03 05:51:37;;;;;;;45.38;19.75;;;0.80;99.90;;;;;;4934477;29;20926;-69
2022/03/03 05:54:05;;;;;;;55.00;22.30;;;0.70;99.90;;;;;;4925477;29;20262;-69
2022/03/03 05:56:36;;;;;;;58.70;18.83;;;0.70;99.90;;;;;;4922652;29;20257;-69
2022/03/03 05:59:07;;;;;;;51.42;19.98;;;0.70;99.90;;;;;;4934079;29;20205;-69
2022/03/03 06:01:38;;;;;;;48.13;19.17;;;0.70;99.90;;;;;;4925908;29;20230;-71
2022/03/03 06:04:07;;;;;;;46.28;19.67;;;0.70;99.90;;;;;;4916555;29;20217;-70
2022/03/03 06:06:37;;;;;;;45.05;19.95;;;0.70;99.90;;;;;;4929477;29;20214;-68
2022/03/03 06:09:10;;;;;;;49.40;19.75;;;0.70;99.90;;;;;;4927213;29;20236;-69
2022/03/03 06:11:47;;;;;;;43.78;18.67;;;0.70;99.90;;;;;;4934407;29;20668;-70
2022/03/03 06:14:21;;;;;;;53.42;21.42;;;0.60;99.90;;;;;;4927318;29;20232;-69
2022/03/03 06:16:50;;;;;;;45.75;17.52;;;0.60;99.90;;;;;;4924500;29;20209;-69
2022/03/03 06:19:20;;;;;;;41.15;19.42;;;0.50;99.90;;;;;;4934196;29;20582;-69
2022/03/03 06:21:46;;;;;;;43.58;18.52;;;0.60;99.90;;;;;;4943925;23;20234;-70
2022/03/03 06:24:14;;;;;;;43.10;16.40;;;0.60;99.90;;;;;;4915767;29;20707;-67
2022/03/03 06:26:41;;;;;;;39.30;16.17;;;0.50;99.90;;;;;;4914751;29;20203;-68
2022/03/03 06:29:08;;;;;;;45.97;19.38;;;0.40;99.90;;;;;;4915120;29;20305;-67
2022/03/03 06:31:35;;;;;;;43.55;18.00;;;0.30;99.90;;;;;;4914049;29;20659;-68
2022/03/03 06:34:01;;;;;;;43.70;18.17;;;0.30;99.90;;;;;;4891577;29;20207;-68
2022/03/03 06:36:28;;;;;;;44.20;17.63;;;0.30;99.90;;;;;;4892113;29;20215;-68
2022/03/03 06:38:55;;;;;;;35.53;15.07;;;0.30;99.90;;;;;;4890480;29;20223;-68
2022/03/03 06:41:24;;;;;;;33.97;16.25;;;0.30;99.90;;;;;;4887513;29;20219;-69
2022/03/03 06:43:51;;;;;;;37.97;15.57;;;0.20;99.90;;;;;;4887775;29;20230;-69
2022/03/03 06:46:18;;;;;;;40.80;16.08;;;0.20;99.90;;;;;;4896534;29;20211;-69
2022/03/03 06:48:45;;;;;;;46.08;19.25;;;0.20;99.90;;;;;;4896221;29;20234;-69
2022/03/03 06:51:15;;;;;;;50.30;19.42;;;0.20;99.90;;;;;;4896592;29;20207;-68
2022/03/03 06:53:45;;;;;;;46.97;19.67;;;0.30;99.90;;;;;;4897036;29;20245;-68
2022/03/03 06:56:13;;;;;;;54.60;17.95;;;0.40;99.90;;;;;;4896142;29;20203;-68
2022/03/03 06:58:42;;;;;;;39.65;15.48;;;0.40;99.90;;;;;;4895083;29;20216;-69
2022/03/03 07:01:12;;;;;;;52.13;17.30;;;0.50;99.90;;;;;;4885808;29;20303;-68
2022/03/03 07:03:40;;;;;;;54.53;17.40;;;0.50;99.90;;;;;;4894379;29;20223;-68
2022/03/03 07:06:07;;;;;;;52.53;18.75;;;0.50;99.90;;;;;;4889700;29;20226;-69
2022/03/03 07:08:34;;;;;;;53.22;17.58;;;0.50;99.90;;;;;;4888341;29;20235;-68
2022/03/03 07:11:01;;;;;;;38.80;16.67;;;0.50;99.90;;;;;;4894971;29;20219;-68
2022/03/03 07:13:28;;;;;;;36.22;15.32;;;0.40;99.90;;;;;;4895524;29;20231;-68
2022/03/03 07:16:15;;;;;;;36.55;15.10;;;0.40;99.90;;;;;;4894911;29;20552;-70
2022/03/03 07:18:43;;;;;;;34.67;17.85;;;0.40;99.90;;;;;;4894879;29;20199;-67
2022/03/03 07:21:17;;;;;;;45.38;17.33;;;0.40;99.90;;;;;;4883861;29;20259;-68
2022/03/03 07:23:48;;;;;;;50.05;14.32;;;0.30;99.90;;;;;;4893954;29;20242;-67
2022/03/03 07:26:17;;;;;;;38.42;14.07;;;0.30;99.90;;;;;;4878661;29;20216;-67
2022/03/03 07:28:50;;;;;;;38.83;14.45;;;0.30;99.90;;;;;;4895125;29;20223;-69
2022/03/03 07:31:23;;;;;;;29.65;14.55;;;0.30;99.90;;;;;;4877449;29;20299;-69
2022/03/03 07:33:54;;;;;;;38.25;16.17;;;0.40;99.90;;;;;;4895125;29;20716;-68
2022/03/03 07:36:24;;;;;;;42.45;15.45;;;0.40;99.90;;;;;;4894244;29;20267;-69
2022/03/03 07:38:59;;;;;;;26.83;12.23;;;0.40;99.90;;;;;;4892210;29;20310;-67
2022/03/03 07:41:29;;;;;;;21.50;11.02;;;0.40;99.90;;;;;;4883832;29;20267;-70
2022/03/03 07:43:57;;;;;;;30.80;12.35;;;0.40;99.90;;;;;;4894315;29;20233;-68
2022/03/03 07:46:27;;;;;;;23.33;12.50;;;0.40;99.90;;;;;;4894749;29;20203;-68
2022/03/03 07:48:54;;;;;;;32.15;13.88;;;0.40;99.90;;;;;;4894528;29;20239;-68
2022/03/03 07:51:21;;;;;;;34.17;13.45;;;0.30;99.90;;;;;;4893724;29;20332;-69
2022/03/03 07:53:48;;;;;;;32.75;15.13;;;0.40;99.90;;;;;;4894316;29;20231;-68
2022/03/03 07:56:21;;;;;;;34.58;13.52;;;0.40;99.90;;;;;;4882226;29;20212;-68
2022/03/03 07:58:51;;;;;;;30.10;13.75;;;0.40;99.90;;;;;;4891781;29;20204;-68
2022/03/03 08:01:20;;;;;;;29.63;13.18;;;0.50;99.90;;;;;;4894969;29;20214;-69
2022/03/03 08:03:48;;;;;;;36.13;14.15;;;0.50;99.90;;;;;;4894852;29;20234;-69
2022/03/03 08:06:16;;;;;;;45.90;14.77;;;0.50;99.90;;;;;;4894253;29;20720;-69
2022/03/03 08:08:45;;;;;;;31.58;13.45;;;0.60;99.90;;;;;;4894230;29;20238;-70
2022/03/03 08:11:11;;;;;;;37.97;14.43;;;0.60;99.90;;;;;;4884705;29;20219;-68
2022/03/03 08:13:38;;;;;;;34.42;13.40;;;0.60;99.90;;;;;;4891823;29;20226;-68
2022/03/03 08:16:05;;;;;;;37.95;13.00;;;0.70;99.90;;;;;;4894002;29;20298;-68
2022/03/03 08:18:35;;;;;;;26.20;13.82;;;0.80;99.90;;;;;;4888531;29;20210;-69
2022/03/03 08:21:04;;;;;;;23.25;11.98;;;0.90;99.90;;;;;;4891436;29;20207;-69
2022/03/03 08:23:31;;;;;;;23.88;11.77;;;0.90;99.90;;;;;;4894038;29;20696;-69
2022/03/03 08:26:00;;;;;;;29.65;12.70;;;0.90;99.90;;;;;;4895027;29;20676;-69
2022/03/03 08:28:27;;;;;;;31.58;13.35;;;0.90;99.90;;;;;;4898068;29;20279;-69
2022/03/03 08:31:00;;;;;;;33.78;13.70;;;1.10;99.90;;;;;;4897785;29;20227;-69
2022/03/03 08:33:36;;;;;;;26.13;13.65;;;1.10;99.90;;;;;;4897425;29;20287;-69
2022/03/03 08:36:15;;;;;;;29.58;12.80;;;1.10;99.90;;;;;;4890524;29;20682;-69
2022/03/03 08:38:48;;;;;;;28.27;12.38;;;1.20;99.90;;;;;;4896269;29;20238;-69
2022/03/03 08:41:15;;;;;;;54.45;25.73;;;1.30;99.90;;;;;;4896094;29;20464;-70
2022/03/03 08:43:44;;;;;;;31.95;14.18;;;1.40;99.90;;;;;;4896643;29;20235;-70
2022/03/03 08:46:12;;;;;;;26.35;12.20;;;1.40;99.90;;;;;;4890686;29;20629;-69
2022/03/03 08:48:41;;;;;;;24.33;13.23;;;1.30;99.90;;;;;;4896406;29;20203;-69
2022/03/03 08:51:11;;;;;;;29.50;12.65;;;1.20;99.90;;;;;;4897206;29;20219;-69
2022/03/03 08:53:38;;;;;;;14.57;8.93;;;1.20;99.90;;;;;;4897656;29;20246;-68
2022/03/03 08:56:05;;;;;;;26.15;10.23;;;1.30;99.90;;;;;;4897630;29;20594;-68
2022/03/03 08:58:31;;;;;;;18.65;11.38;;;1.20;99.90;;;;;;4897383;29;20259;-68
2022/03/03 09:00:58;;;;;;;20.90;10.82;;;1.20;99.90;;;;;;4896511;29;20215;-69
2022/03/03 09:03:25;;;;;;;23.98;10.68;;;1.40;99.90;;;;;;4897397;29;20242;-68
2022/03/03 09:05:54;;;;;;;25.00;12.40;;;1.40;99.90;;;;;;4897949;29;20215;-68
2022/03/03 09:08:22;;;;;;;23.25;10.43;;;1.30;99.90;;;;;;4897292;29;20856;-68
2022/03/03 09:10:49;;;;;;;21.83;10.50;;;1.40;99.90;;;;;;4896988;29;20554;-69
2022/03/03 09:13:17;;;;;;;14.52;8.98;;;1.50;99.90;;;;;;4896971;29;20532;-69
2022/03/03 09:15:44;;;;;;;18.88;10.07;;;1.40;99.90;;;;;;4897140;29;20219;-69
2022/03/03 09:18:10;;;;;;;17.95;9.63;;;1.50;99.90;;;;;;4897032;29;20203;-69
2022/03/03 09:20:37;;;;;;;21.73;11.07;;;1.60;99.90;;;;;;4897212;29;20283;-69
2022/03/03 09:23:04;;;;;;;19.58;10.45;;;1.60;99.90;;;;;;4897690;29;20246;-68
2022/03/03 09:25:36;;;;;;;19.80;10.63;;;1.70;99.90;;;;;;4891301;29;20700;-68
2022/03/03 09:28:03;;;;;;;17.63;9.82;;;1.80;99.90;;;;;;4896754;29;20215;-68
2022/03/03 09:30:29;;;;;;;20.98;11.02;;;1.80;99.90;;;;;;4898440;29;20236;-69
2022/03/03 09:32:56;;;;;;;23.17;10.40;;;1.70;99.90;;;;;;4900696;29;20263;-68
2022/03/03 09:35:23;;;;;;;18.38;9.50;;;1.50;99.90;;;;;;4900273;29;20657;-69
2022/03/03 09:37:51;;;;;;;21.42;10.45;;;1.50;99.90;;;;;;4895017;29;20330;-69
2022/03/03 09:40:17;;;;;;;22.05;10.43;;;1.60;99.90;;;;;;4887772;29;20236;-70
2022/03/03 09:42:57;;;;;;;18.15;10.05;;;1.70;99.90;;;;;;4879761;29;20383;-69
2022/03/03 09:45:25;;;;;;;16.23;9.60;;;1.80;99.90;;;;;;4879792;29;20698;-68
2022/03/03 09:47:52;;;;;;;16.95;9.57;;;1.80;99.90;;;;;;4879872;29;20212;-71
2022/03/03 09:50:19;;;;;;;14.65;8.10;;;1.90;99.90;;;;;;4889162;29;20333;-68
2022/03/03 09:52:46;;;;;;;14.27;6.78;;;1.90;99.90;;;;;;4898647;29;20251;-68
2022/03/03 09:55:13;;;;;;;17.65;9.90;;;1.90;99.90;;;;;;4893769;29;20567;-68
2022/03/03 09:57:40;;;;;;;14.57;8.40;;;1.90;99.90;;;;;;4878290;29;20219;-69
2022/03/03 10:00:11;;;;;;;10.50;7.53;;;1.80;99.90;;;;;;4885174;29;20685;-69
2022/03/03 10:02:59;;;;;;;6.80;5.53;;;1.70;99.90;;;;;;4896205;29;20234;-69
2022/03/03 10:05:34;;;;;;;8.43;6.65;;;1.60;99.90;;;;;;4896362;29;20207;-68
2022/03/03 10:08:02;;;;;;;14.05;8.20;;;1.60;99.90;;;;;;4896402;29;20270;-68
2022/03/03 10:10:29;;;;;;;18.33;9.25;;;1.70;99.90;;;;;;4895279;29;20242;-68
2022/03/03 10:12:58;;;;;;;17.35;9.30;;;1.70;99.90;;;;;;4895949;29;20223;-68
2022/03/03 10:15:30;;;;;;;20.83;10.00;;;1.70;99.90;;;;;;4895986;29;20223;-68
2022/03/03 10:17:59;;;;;;;16.77;7.30;;;1.80;99.90;;;;;;4896111;29;20211;-69
2022/03/03 10:20:27;;;;;;;13.70;7.40;;;1.80;99.90;;;;;;4894842;29;20195;-69
2022/03/03 10:22:57;;;;;;;11.98;7.15;;;1.90;99.90;;;;;;4895856;29;20685;-69
2022/03/03 10:25:32;;;;;;;13.60;6.70;;;1.80;99.90;;;;;;4896573;29;20576;-70
2022/03/03 10:28:14;;;;;;;9.65;6.63;;;1.90;99.90;;;;;;4895844;29;20267;-69
2022/03/03 10:30:54;;;;;;;8.45;4.80;;;1.80;99.90;;;;;;4894806;29;20759;-70
2022/03/03 10:33:22;;;;;;;9.95;6.03;;;1.70;99.90;;;;;;4896012;29;20295;-69
2022/03/03 10:35:59;;;;;;;8.77;5.53;;;1.80;99.90;;;;;;4896145;29;20251;-69
2022/03/03 10:38:26;;;;;;;9.65;6.50;;;1.90;99.90;;;;;;4896064;29;20263;-69
2022/03/03 10:40:53;;;;;;;7.63;5.57;;;1.90;99.90;;;;;;4893750;29;20215;-69
2022/03/03 10:43:19;;;;;;;9.48;5.82;;;1.90;99.90;;;;;;4887197;29;20239;-70
2022/03/03 10:45:59;;;;;;;10.48;6.45;;;1.90;99.90;;;;;;4884207;29;20216;-70
2022/03/03 10:48:28;;;;;;;10.85;6.00;;;1.90;99.90;;;;;;4876418;29;20207;-69
2022/03/03 10:50:58;;;;;;;6.32;5.30;;;2.00;99.90;;;;;;4888497;29;20231;-69
2022/03/03 10:53:26;;;;;;;12.38;6.68;;;2.10;99.90;;;;;;4895733;29;20279;-69
2022/03/03 10:56:05;;;;;;;7.13;5.03;;;2.20;99.90;;;;;;4895259;29;20262;-69
2022/03/03 10:58:46;;;;;;;8.23;5.25;;;2.10;99.90;;;;;;4895635;29;20302;-69
2022/03/03 11:01:14;;;;;;;8.30;5.68;;;2.10;99.90;;;;;;4894770;29;20206;-69
2022/03/03 11:03:44;;;;;;;8.45;6.53;;;2.10;99.90;;;;;;4895538;29;20744;-69
2022/03/03 11:06:11;;;;;;;5.90;4.07;;;2.10;99.90;;;;;;4895484;29;20582;-69
2022/03/03 11:08:38;;;;;;;9.23;4.63;;;2.00;99.90;;;;;;4894971;29;20219;-69
2022/03/03 11:11:05;;;;;;;12.05;5.82;;;2.00;99.90;;;;;;4896067;29;20232;-71
2022/03/03 11:13:33;;;;;;;8.63;5.53;;;2.10;99.90;;;;;;4896087;29;20234;-70
2022/03/03 11:16:00;;;;;;;7.60;4.53;;;2.20;99.90;;;;;;4892862;29;20215;-69
2022/03/03 11:18:29;;;;;;;4.18;3.78;;;2.20;99.90;;;;;;4894886;29;20555;-69
2022/03/03 11:20:57;;;;;;;10.85;5.47;;;2.20;99.90;;;;;;4893524;29;20628;-69
2022/03/03 11:23:24;;;;;;;7.45;4.50;;;2.30;99.90;;;;;;4895043;29;20246;-69
2022/03/03 11:25:53;;;;;;;8.20;5.22;;;2.30;99.90;;;;;;4890011;29;20234;-68
2022/03/03 11:28:33;;;;;;;5.43;4.68;;;2.40;99.90;;;;;;4894239;29;20298;-68
2022/03/03 11:31:25;;;;;;;11.35;6.20;;;2.50;99.90;;;;;;4893552;29;20619;-68
2022/03/03 11:34:29;;;;;;;9.60;5.45;;;2.50;99.90;;;;;;4895304;29;20236;-68
2022/03/03 11:37:03;;;;;;;6.82;4.38;;;2.60;99.90;;;;;;4894478;29;20202;-68
2022/03/03 11:39:42;;;;;;;7.65;5.22;;;2.60;99.90;;;;;;4892647;29;20212;-68
2022/03/03 11:42:24;;;;;;;6.07;4.53;;;2.70;99.90;;;;;;4892039;29;20311;-69
2022/03/03 11:44:53;;;;;;;5.88;4.32;;;2.70;99.90;;;;;;4893800;29;20226;-68
2022/03/03 11:47:22;;;;;;;6.40;4.93;;;2.80;99.90;;;;;;4893728;29;20207;-68
2022/03/03 11:50:01;;;;;;;7.28;5.45;;;2.80;99.90;;;;;;4893890;29;20227;-69
2022/03/03 11:52:28;;;;;;;7.50;4.85;;;2.80;99.90;;;;;;4876074;29;20235;-69
2022/03/03 11:54:57;;;;;;;6.78;4.25;;;2.80;99.90;;;;;;4878589;29;20212;-69
2022/03/03 11:57:27;;;;;;;5.93;4.57;;;3.00;99.90;;;;;;4875481;29;20619;-68
2022/03/03 11:59:59;;;;;;;3.92;3.60;;;3.10;99.90;;;;;;4878589;29;21008;-67
2022/03/03 12:02:30;;;;;;;4.97;3.70;;;3.20;99.90;;;;;;4894605;29;20287;-69
2022/03/03 12:05:33;;;;;;;3.80;3.50;;;3.40;99.90;;;;;;4894287;29;20215;-68
2022/03/03 12:08:01;;;;;;;4.75;3.58;;;3.40;99.90;;;;;;4894512;29;20564;-68
2022/03/03 12:10:28;;;;;;;6.60;3.80;;;3.50;99.90;;;;;;4892992;29;20270;-68
2022/03/03 12:13:26;;;;;;;3.63;2.72;;;3.50;99.90;;;;;;4894035;29;20243;-70
2022/03/03 12:16:19;;;;;;;5.03;3.42;;;3.50;99.90;;;;;;4875144;29;20305;-69
2022/03/03 12:18:47;;;;;;;5.30;4.53;;;3.60;99.90;;;;;;4893042;29;20215;-68
2022/03/03 12:21:26;;;;;;;4.53;4.05;;;3.70;99.90;;;;;;4893368;29;20298;-69
2022/03/03 12:24:28;;;;;;;5.22;4.30;;;3.70;99.90;;;;;;4884402;29;20236;-69
2022/03/03 12:27:21;;;;;;;5.60;4.15;;;3.70;99.90;;;;;;4891322;29;20222;-69
2022/03/03 12:29:57;;;;;;;4.97;3.38;;;3.80;99.90;;;;;;4892285;29;20229;-68
2022/03/03 12:32:35;;;;;;;5.30;4.45;;;3.80;99.90;;;;;;4894161;29;20231;-68
2022/03/03 12:35:04;;;;;;;4.60;4.20;;;3.80;99.90;;;;;;4893461;29;20209;-68
2022/03/03 12:37:33;;;;;;;6.40;4.53;;;3.80;99.90;;;;;;4893687;29;20214;-68
2022/03/03 12:40:01;;;;;;;5.32;4.75;;;3.90;99.90;;;;;;4887453;29;20573;-67
2022/03/03 12:42:31;;;;;;;8.80;5.18;;;4.00;99.90;;;;;;4882510;29;20255;-67
2022/03/03 12:44:59;;;;;;;5.85;3.88;;;4.10;99.90;;;;;;4888831;29;20221;-67
2022/03/03 12:47:37;;;;;;;4.60;4.30;;;4.20;99.90;;;;;;4877016;29;20208;-67
2022/03/03 12:50:06;;;;;;;6.38;5.68;;;4.30;99.90;;;;;;4885283;29;20235;-68
2022/03/03 12:52:35;;;;;;;6.13;3.78;;;4.40;99.90;;;;;;4893986;29;20263;-68
2022/03/03 12:55:03;;;;;;;5.68;4.65;;;4.40;99.90;;;;;;4893623;29;20581;-68
2022/03/03 12:57:33;;;;;;;6.88;4.82;;;4.50;99.90;;;;;;4892721;29;20235;-68
2022/03/03 13:00:01;;;;;;;3.60;3.35;;;4.50;99.90;;;;;;4892632;29;20259;-68
2022/03/03 13:02:28;;;;;;;5.43;4.85;;;4.40;99.90;;;;;;4893067;29;20230;-68
2022/03/03 13:04:55;;;;;;;6.30;4.78;;;4.50;99.90;;;;;;4893712;29;20207;-68
2022/03/03 13:07:22;;;;;;;6.63;4.85;;;4.40;99.90;;;;;;4893778;29;20429;-68
2022/03/03 13:09:55;;;;;;;8.65;5.95;;;4.40;99.90;;;;;;4891391;29;20216;-69
2022/03/03 13:12:23;;;;;;;5.70;4.65;;;4.50;99.90;;;;;;4894485;29;20231;-68
2022/03/03 13:14:57;;;;;;;5.82;5.03;;;4.50;99.90;;;;;;4896439;29;20222;-68
2022/03/03 13:17:24;;;;;;;5.75;4.85;;;4.60;99.90;;;;;;4896954;29;20233;-67
2022/03/03 13:19:51;;;;;;;6.35;5.00;;;4.70;99.90;;;;;;4895607;29;20215;-68
2022/03/03 13:22:18;;;;;;;5.00;4.35;;;4.80;99.90;;;;;;4895462;29;20231;-68
2022/03/03 13:24:45;;;;;;;5.82;5.18;;;4.80;99.90;;;;;;4893844;29;20604;-68
2022/03/03 13:27:13;;;;;;;4.97;4.53;;;4.80;99.90;;;;;;4894735;29;20211;-68
2022/03/03 13:29:42;;;;;;;4.97;4.47;;;4.90;99.90;;;;;;4896125;29;20211;-69
2022/03/03 13:32:13;;;;;;;6.32;5.18;;;5.00;99.90;;;;;;4896651;29;20705;-68
2022/03/03 13:34:45;;;;;;;6.68;5.25;;;5.00;99.90;;;;;;4897041;29;20290;-69
2022/03/03 13:37:16;;;;;;;7.55;5.20;;;5.00;99.90;;;;;;4892468;29;20286;-68
2022/03/03 13:39:43;;;;;;;7.30;5.45;;;5.00;99.90;;;;;;4885569;29;20212;-69
2022/03/03 13:42:11;;;;;;;8.30;5.22;;;5.10;99.90;;;;;;4894911;29;20227;-69
2022/03/03 13:44:42;;;;;;;7.00;5.28;;;5.20;99.90;;;;;;4896532;29;20212;-68
2022/03/03 13:47:10;;;;;;;7.38;5.57;;;5.20;99.90;;;;;;4897515;29;20287;-68
2022/03/03 13:49:39;;;;;;;4.95;4.35;;;5.20;99.90;;;;;;4888946;29;20855;-68
2022/03/03 13:52:12;;;;;;;6.10;4.25;;;5.30;99.90;;;;;;4894690;29;20235;-68
2022/03/03 13:54:43;;;;;;;11.40;6.30;;;5.30;99.90;;;;;;4893098;29;20207;-69
2022/03/03 13:57:39;;;;;;;5.13;4.63;;;5.20;99.90;;;;;;4889303;29;20271;-69
2022/03/03 14:00:23;;;;;;;7.88;5.78;;;5.20;99.90;;;;;;4895870;29;20211;-69
2022/03/03 14:03:12;;;;;;;6.78;5.35;;;5.40;99.90;;;;;;4894133;29;20227;-68
2022/03/03 14:05:41;;;;;;;6.25;4.40;;;5.40;99.90;;;;;;4892343;29;20230;-68
2022/03/03 14:08:18;;;;;;;8.30;5.50;;;5.30;99.90;;;;;;4894927;29;20208;-68
2022/03/03 14:10:50;;;;;;;6.32;5.72;;;5.10;99.90;;;;;;4895548;29;20319;-68
2022/03/03 14:13:18;;;;;;;9.13;5.93;;;5.00;99.90;;;;;;4894845;29;20234;-69
2022/03/03 14:15:46;;;;;;;7.30;4.68;;;5.00;99.90;;;;;;4892025;29;20209;-68
2022/03/03 14:18:15;;;;;;;7.43;4.15;;;5.00;99.90;;;;;;4889618;29;20294;-68
2022/03/03 14:20:41;;;;;;;6.35;5.00;;;5.10;99.90;;;;;;4897750;29;20207;-68
2022/03/03 14:23:08;;;;;;;6.70;5.35;;;5.20;99.90;;;;;;4898586;29;20247;-68
2022/03/03 14:25:35;;;;;;;8.32;5.78;;;5.20;99.90;;;;;;4898175;29;20207;-68
2022/03/03 14:28:02;;;;;;;4.93;4.50;;;5.30;99.90;;;;;;4904705;29;20286;-68
2022/03/03 14:30:30;;;;;;;5.78;4.53;;;5.30;99.90;;;;;;4888081;29;20242;-68
2022/03/03 14:32:58;;;;;;;7.72;4.75;;;5.30;99.90;;;;;;4892666;29;20242;-68
2022/03/03 14:35:25;;;;;;;7.15;4.70;;;5.30;99.90;;;;;;4902900;29;20212;-68
2022/03/03 14:37:52;;;;;;;8.75;5.38;;;5.30;99.90;;;;;;4902250;29;20664;-68
2022/03/03 14:40:19;;;;;;;5.30;4.80;;;5.40;99.90;;;;;;4888011;29;20219;-68
2022/03/03 14:42:45;;;;;;;5.28;4.60;;;5.40;99.90;;;;;;4895132;29;20231;-68
2022/03/03 14:45:12;;;;;;;7.05;4.72;;;5.30;99.90;;;;;;4890369;29;20267;-68
2022/03/03 14:47:40;;;;;;;6.15;5.35;;;5.30;99.90;;;;;;4884434;29;20675;-68
2022/03/03 14:50:09;;;;;;;6.75;5.60;;;5.30;99.90;;;;;;4898364;29;20246;-68
2022/03/03 14:52:36;;;;;;;8.02;5.93;;;5.30;99.90;;;;;;4905587;29;20659;-68
2022/03/03 14:55:04;;;;;;;6.68;4.55;;;5.30;99.90;;;;;;4898290;29;20223;-69
2022/03/03 14:57:31;;;;;;;9.32;5.82;;;5.20;99.90;;;;;;4897182;29;20689;-68
2022/03/03 14:59:58;;;;;;;9.00;6.95;;;5.10;99.90;;;;;;4889150;29;20270;-68
2022/03/03 15:02:25;;;;;;;11.50;6.57;;;5.20;99.90;;;;;;4890808;29;20235;-68
2022/03/03 15:04:51;;;;;;;10.02;7.22;;;5.30;99.90;;;;;;4889453;29;20302;-68
2022/03/03 15:07:19;;;;;;;14.27;7.80;;;5.40;99.90;;;;;;4906988;29;20555;-68
2022/03/03 15:09:46;;;;;;;8.82;6.50;;;5.50;99.90;;;;;;4896920;29;20214;-68
2022/03/03 15:12:13;;;;;;;7.47;5.45;;;5.50;99.90;;;;;;4893333;29;20713;-69
2022/03/03 15:14:40;;;;;;;7.22;5.53;;;5.50;99.90;;;;;;4889346;29;20645;-68
2022/03/03 15:17:07;;;;;;;9.15;7.40;;;5.50;99.90;;;;;;4885045;29;20219;-68
2022/03/03 15:19:35;;;;;;;8.43;5.95;;;5.60;99.90;;;;;;4894903;29;20284;-68
2022/03/03 15:22:01;;;;;;;14.23;7.32;;;5.60;99.90;;;;;;4894782;29;20242;-68
2022/03/03 15:24:29;;;;;;;10.30;6.50;;;5.60;99.90;;;;;;4894198;29;20215;-68
2022/03/03 15:26:56;;;;;;;11.65;6.82;;;5.60;99.90;;;;;;4895112;29;20229;-69
2022/03/03 15:29:24;;;;;;;9.35;7.13;;;5.50;99.90;;;;;;4901337;29;20207;-69
2022/03/03 15:31:51;;;;;;;8.60;4.72;;;5.40;99.90;;;;;;4894256;29;20393;-69
2022/03/03 15:37:02;;;;;;;10.80;7.38;;;5.10;99.90;;;;;;4890367;29;20263;-68
2022/03/03 15:39:33;;;;;;;10.07;5.90;;;5.00;99.90;;;;;;4888092;29;20665;-68
2022/03/03 15:42:01;;;;;;;10.48;7.13;;;5.00;99.90;;;;;;4884880;29;20223;-68
2022/03/03 15:44:30;;;;;;;10.43;6.88;;;5.00;99.90;;;;;;4897087;29;20206;-69
2022/03/03 15:46:57;;;;;;;11.27;6.05;;;4.90;99.90;;;;;;4909689;29;20215;-69
2022/03/03 15:49:26;;;;;;;13.65;6.82;;;4.90;99.90;;;;;;4891396;29;20579;-69
2022/03/03 15:51:54;;;;;;;11.27;5.88;;;4.90;99.90;;;;;;4891916;29;20267;-70
2022/03/03 15:54:23;;;;;;;10.60;6.75;;;4.90;99.90;;;;;;4887500;29;20208;-70
2022/03/03 15:56:52;;;;;;;9.38;5.45;;;4.90;99.90;;;;;;4893618;29;20637;-69
2022/03/03 15:59:19;;;;;;;11.10;6.45;;;4.90;99.90;;;;;;4888789;29;20561;-69
2022/03/03 16:01:48;;;;;;;10.55;6.85;;;4.80;99.90;;;;;;4893865;29;20207;-69
2022/03/03 16:04:15;;;;;;;12.13;6.97;;;4.80;99.90;;;;;;4893931;29;20239;-69
2022/03/03 16:06:41;;;;;;;9.70;5.72;;;4.70;99.90;;;;;;4892150;29;20692;-69
2022/03/03 16:09:09;;;;;;;6.50;5.80;;;4.70;99.90;;;;;;4900313;29;20221;-69
2022/03/03 16:11:36;;;;;;;7.20;5.45;;;4.60;99.90;;;;;;4891635;29;20617;-69
2022/03/03 16:14:04;;;;;;;7.07;5.22;;;4.60;99.90;;;;;;4893996;29;20223;-69
2022/03/03 16:16:30;;;;;;;9.90;5.65;;;4.60;99.90;;;;;;4893509;29;20318;-67
2022/03/03 16:18:57;;;;;;;10.50;6.50;;;4.50;99.90;;;;;;4893560;29;20243;-68
2022/03/03 16:21:24;;;;;;;7.05;5.82;;;4.50;99.90;;;;;;4892906;29;20536;-68
2022/03/03 16:23:51;;;;;;;8.00;5.50;;;4.50;99.90;;;;;;4888948;29;20606;-68
2022/03/03 16:26:19;;;;;;;8.38;5.63;;;4.40;99.90;;;;;;4890610;29;20294;-68
2022/03/03 16:28:45;;;;;;;8.10;5.53;;;4.40;99.90;;;;;;4894084;29;20607;-68
2022/03/03 16:31:49;;;;;;;9.27;5.85;;;4.30;99.90;;;;;;4894207;29;20227;-68
2022/03/03 16:34:17;;;;;;;9.18;5.57;;;4.30;99.90;;;;;;4890853;29;20218;-68
2022/03/03 16:36:45;;;;;;;6.80;6.18;;;4.30;99.90;;;;;;4901809;29;20212;-68
2022/03/03 16:39:12;;;;;;;8.40;6.90;;;4.20;99.90;;;;;;4896790;29;20259;-68
2022/03/03 16:41:39;;;;;;;8.07;6.20;;;4.20;99.90;;;;;;4891420;29;20286;-69
2022/03/03 16:44:06;;;;;;;8.75;5.57;;;4.20;99.90;;;;;;4895099;29;20624;-68
2022/03/03 16:46:33;;;;;;;11.75;6.60;;;4.10;99.90;;;;;;4891518;29;20207;-68
2022/03/03 16:49:00;;;;;;;9.10;6.20;;;4.10;99.90;;;;;;4894022;29;20649;-68
2022/03/03 16:51:32;;;;;;;7.82;6.07;;;4.00;99.90;;;;;;4889251;29;20223;-68
2022/03/03 16:53:59;;;;;;;11.25;6.38;;;4.00;99.90;;;;;;4895314;29;20235;-69
2022/03/03 16:56:26;;;;;;;11.85;6.55;;;4.00;99.90;;;;;;4890901;29;20227;-68
2022/03/03 16:58:52;;;;;;;9.32;6.05;;;3.90;99.90;;;;;;4898205;29;20531;-68
2022/03/03 17:01:19;;;;;;;8.60;6.35;;;3.90;99.90;;;;;;4896911;29;20278;-68
2022/03/03 17:03:46;;;;;;;12.05;6.45;;;3.90;99.90;;;;;;4896824;29;20231;-68
2022/03/03 17:06:12;;;;;;;11.20;7.47;;;3.80;99.90;;;;;;4897958;29;20211;-67
2022/03/03 17:08:40;;;;;;;8.70;5.70;;;3.80;99.90;;;;;;4896584;29;20266;-67
2022/03/03 17:11:07;;;;;;;8.27;5.47;;;3.80;99.90;;;;;;4895880;29;20218;-68
2022/03/03 17:13:35;;;;;;;9.93;7.25;;;3.80;99.90;;;;;;4897073;29;20569;-68
2022/03/03 17:16:02;;;;;;;8.98;6.65;;;3.80;99.90;;;;;;4893384;29;20661;-68
2022/03/03 17:18:29;;;;;;;14.93;6.45;;;3.80;99.90;;;;;;4899179;29;20215;-67
2022/03/03 17:20:56;;;;;;;12.88;6.88;;;3.80;99.90;;;;;;4895480;29;20267;-67
2022/03/03 17:23:22;;;;;;;13.15;7.05;;;3.80;99.90;;;;;;4893076;29;20327;-67
2022/03/03 17:25:50;;;;;;;11.95;6.32;;;3.80;99.90;;;;;;4896893;29;20251;-68
2022/03/03 17:28:17;;;;;;;16.88;8.45;;;3.80;99.90;;;;;;4896600;29;20243;-68
2022/03/03 17:30:44;;;;;;;14.30;7.20;;;3.70;99.90;;;;;;4893951;29;20311;-69
2022/03/03 17:33:11;;;;;;;8.85;6.03;;;3.70;99.90;;;;;;4895839;29;20334;-69
2022/03/03 17:35:38;;;;;;;9.60;6.63;;;3.70;99.90;;;;;;4895303;29;20256;-69
2022/03/03 17:38:05;;;;;;;13.95;7.13;;;3.70;99.90;;;;;;4894241;29;20231;-68
2022/03/03 17:40:32;;;;;;;13.23;6.68;;;3.70;99.90;;;;;;4902082;29;20571;-68
2022/03/03 17:43:00;;;;;;;14.25;7.43;;;3.70;99.90;;;;;;4893587;29;20583;-68
2022/03/03 17:45:28;;;;;;;12.32;7.38;;;3.60;99.90;;;;;;4896045;29;20830;-69
2022/03/03 17:47:54;;;;;;;16.00;8.05;;;3.60;99.90;;;;;;4896075;29;20207;-68
2022/03/03 17:50:22;;;;;;;13.77;6.75;;;3.60;99.90;;;;;;4895757;29;20207;-68
2022/03/03 17:52:49;;;;;;;9.55;6.63;;;3.60;99.90;;;;;;4896266;29;20254;-68
2022/03/03 17:55:16;;;;;;;12.80;7.93;;;3.60;99.90;;;;;;4895811;29;20667;-69
2022/03/03 17:57:44;;;;;;;15.43;7.82;;;3.70;99.90;;;;;;4895821;29;20222;-69
2022/03/03 18:00:15;;;;;;;10.35;6.68;;;3.70;99.90;;;;;;4894995;29;20211;-69
2022/03/03 18:02:42;;;;;;;12.32;6.47;;;3.70;99.90;;;;;;4895836;29;20262;-69
2022/03/03 18:05:10;;;;;;;12.13;6.90;;;3.70;99.90;;;;;;4895943;29;20298;-68